Terminal Aerodrome Forecast
Issued by NWS

Home | Current Version | Previous Version | Graphics & Text | Print | Product List | Glossary On
Versions: 1 2 3 4 5 6 7 8 9 10 11 12 13 14 15 16 17 18 19
000
FTUS43 KGRB 161700
TAFRHI
TAF
KRHI 161721Z 1618/1718 11010KT 1/2SM SN FZFG VV009
     FM162200 10012KT 3SM -SN BR SCT008 OVC015
      TEMPO 1622/1702 1SM -SN BR BKN008
     FM170200 10012KT 1/2SM SN FZFG OVC003 WS015/15040KT
     FM171400 14008KT 1 1/2SM -SN OVC004=

USA.gov is the U.S. government's official web portal to all federal, state and local government web resources and services.